Ryegate, Vermont
Current Conditions -  °F | °C
As of 3:51 PM on Saturday 22 Nov 2014 (Local Time) from KMPV Reporting Station
Overcast Overcast  
Wind Chill: 23°   Ceiling: 3200
Heat Index: 33°   Visibility: 10mi
Dew Point: 10°   Wind: 15mph
Humidity: 38%   Direction: 160°SSE
Pressure: 30"   Gusts: 21mph
Location:  44.1959°N, 72.0788°W
Report Text: KMPV 222051Z AUTO 16013G18KT 10SM BKN032 BKN040 OVC047 01/M12 A3000 RMK AO2 SLP177 T00061122 56023
Loading
Personal Weather Stations






























Interactive Weather Map New forecast layout! Learn more

10-Day Weather Forecast

Advertisements
Track Severe Weather on mobile